sensor_id;sensor_type;location;lat;lon;timestamp;P1;durP1;ratioP1;P2;durP2;ratioP2
6203;SDS011;3135;42.602;23.468;2022-10-16T00:00:43;4.53;;;2.33;;
6203;SDS011;3135;42.602;23.468;2022-10-16T00:03:10;3.83;;;2.75;;
6203;SDS011;3135;42.602;23.468;2022-10-16T00:05:40;2.33;;;2.13;;
6203;SDS011;3135;42.602;23.468;2022-10-16T00:08:07;2.47;;;2.10;;
6203;SDS011;3135;42.602;23.468;2022-10-16T00:10:34;2.40;;;2.20;;
6203;SDS011;3135;42.602;23.468;2022-10-16T00:13:00;4.87;;;2.50;;
6203;SDS011;3135;42.602;23.468;2022-10-16T00:15:25;3.93;;;2.37;;
6203;SDS011;3135;42.602;23.468;2022-10-16T00:17:51;4.27;;;2.53;;
6203;SDS011;3135;42.602;23.468;2022-10-16T00:20:16;4.23;;;2.70;;
6203;SDS011;3135;42.602;23.468;2022-10-16T00:22:42;5.73;;;2.57;;
6203;SDS011;3135;42.602;23.468;2022-10-16T00:25:07;3.33;;;2.47;;
6203;SDS011;3135;42.602;23.468;2022-10-16T00:27:33;6.43;;;2.58;;
6203;SDS011;3135;42.602;23.468;2022-10-16T00:29:59;3.92;;;2.45;;
6203;SDS011;3135;42.602;23.468;2022-10-16T00:32:24;3.90;;;2.70;;
6203;SDS011;3135;42.602;23.468;2022-10-16T00:34:50;2.77;;;2.40;;
6203;SDS011;3135;42.602;23.468;2022-10-16T00:37:15;4.60;;;2.50;;
6203;SDS011;3135;42.602;23.468;2022-10-16T00:39:40;3.70;;;2.60;;
6203;SDS011;3135;42.602;23.468;2022-10-16T00:42:06;5.03;;;2.70;;
6203;SDS011;3135;42.602;23.468;2022-10-16T00:47:11;2.75;;;2.10;;
6203;SDS011;3135;42.602;23.468;2022-10-16T00:49:42;4.93;;;2.50;;
6203;SDS011;3135;42.602;23.468;2022-10-16T00:52:08;3.03;;;2.33;;
6203;SDS011;3135;42.602;23.468;2022-10-16T00:54:35;3.47;;;2.60;;
6203;SDS011;3135;42.602;23.468;2022-10-16T00:57:01;3.17;;;2.30;;
6203;SDS011;3135;42.602;23.468;2022-10-16T00:59:31;2.97;;;2.45;;
6203;SDS011;3135;42.602;23.468;2022-10-16T01:01:59;4.90;;;2.67;;
6203;SDS011;3135;42.602;23.468;2022-10-16T01:04:25;2.80;;;2.60;;
6203;SDS011;3135;42.602;23.468;2022-10-16T01:15:31;4.00;;;2.60;;
6203;SDS011;3135;42.602;23.468;2022-10-16T01:18:18;3.03;;;2.40;;
6203;SDS011;3135;42.602;23.468;2022-10-16T01:28:39;4.72;;;2.60;;
6203;SDS011;3135;42.602;23.468;2022-10-16T01:31:08;5.35;;;2.60;;
6203;SDS011;3135;42.602;23.468;2022-10-16T01:33:42;5.70;;;2.58;;
6203;SDS011;3135;42.602;23.468;2022-10-16T01:36:15;5.70;;;2.70;;
6203;SDS011;3135;42.602;23.468;2022-10-16T01:38:46;6.25;;;3.17;;
6203;SDS011;3135;42.602;23.468;2022-10-16T01:41:15;7.40;;;3.40;;
6203;SDS011;3135;42.602;23.468;2022-10-16T01:43:48;3.13;;;2.83;;
6203;SDS011;3135;42.602;23.468;2022-10-16T01:46:18;4.47;;;2.95;;
6203;SDS011;3135;42.602;23.468;2022-10-16T01:48:46;9.60;;;3.40;;
6203;SDS011;3135;42.602;23.468;2022-10-16T01:51:13;8.07;;;3.30;;
6203;SDS011;3135;42.602;23.468;2022-10-16T01:53:42;5.97;;;3.40;;
6203;SDS011;3135;42.602;23.468;2022-10-16T01:56:11;5.45;;;3.25;;
6203;SDS011;3135;42.602;23.468;2022-10-16T01:58:47;6.43;;;3.83;;
6203;SDS011;3135;42.602;23.468;2022-10-16T02:01:17;4.25;;;3.40;;
6203;SDS011;3135;42.602;23.468;2022-10-16T02:03:46;7.43;;;3.50;;
6203;SDS011;3135;42.602;23.468;2022-10-16T02:06:16;7.35;;;4.07;;
6203;SDS011;3135;42.602;23.468;2022-10-16T02:08:42;8.17;;;4.07;;
6203;SDS011;3135;42.602;23.468;2022-10-16T02:11:09;7.97;;;4.20;;
6203;SDS011;3135;42.602;23.468;2022-10-16T02:13:55;7.88;;;4.28;;
6203;SDS011;3135;42.602;23.468;2022-10-16T02:16:32;7.65;;;3.88;;
6203;SDS011;3135;42.602;23.468;2022-10-16T02:19:03;8.73;;;3.78;;
6203;SDS011;3135;42.602;23.468;2022-10-16T02:21:30;9.90;;;4.00;;
6203;SDS011;3135;42.602;23.468;2022-10-16T02:24:09;5.80;;;3.55;;
6203;SDS011;3135;42.602;23.468;2022-10-16T02:26:47;4.87;;;3.33;;
6203;SDS011;3135;42.602;23.468;2022-10-16T02:29:17;6.00;;;3.13;;
6203;SDS011;3135;42.602;23.468;2022-10-16T02:31:48;4.07;;;2.90;;
6203;SDS011;3135;42.602;23.468;2022-10-16T02:34:18;8.45;;;3.42;;
6203;SDS011;3135;42.602;23.468;2022-10-16T02:36:46;5.43;;;3.30;;
6203;SDS011;3135;42.602;23.468;2022-10-16T02:39:14;5.45;;;3.30;;
6203;SDS011;3135;42.602;23.468;2022-10-16T02:41:41;4.57;;;2.92;;
6203;SDS011;3135;42.602;23.468;2022-10-16T02:44:08;4.78;;;3.25;;
6203;SDS011;3135;42.602;23.468;2022-10-16T02:46:33;6.10;;;3.00;;
6203;SDS011;3135;42.602;23.468;2022-10-16T02:48:58;5.53;;;2.90;;
6203;SDS011;3135;42.602;23.468;2022-10-16T02:51:24;5.13;;;3.00;;
6203;SDS011;3135;42.602;23.468;2022-10-16T02:53:49;4.80;;;3.03;;
6203;SDS011;3135;42.602;23.468;2022-10-16T02:56:15;4.80;;;3.23;;
6203;SDS011;3135;42.602;23.468;2022-10-16T02:58:40;4.90;;;3.37;;
6203;SDS011;3135;42.602;23.468;2022-10-16T03:01:06;6.93;;;3.15;;
6203;SDS011;3135;42.602;23.468;2022-10-16T03:03:31;7.57;;;3.20;;
6203;SDS011;3135;42.602;23.468;2022-10-16T03:05:56;6.72;;;3.45;;
6203;SDS011;3135;42.602;23.468;2022-10-16T03:08:22;4.95;;;3.55;;
6203;SDS011;3135;42.602;23.468;2022-10-16T03:10:50;4.20;;;3.17;;
6203;SDS011;3135;42.602;23.468;2022-10-16T03:13:16;4.63;;;3.00;;
6203;SDS011;3135;42.602;23.468;2022-10-16T03:15:42;5.00;;;3.20;;
6203;SDS011;3135;42.602;23.468;2022-10-16T03:18:08;4.60;;;2.90;;
6203;SDS011;3135;42.602;23.468;2022-10-16T03:20:33;5.80;;;3.20;;
6203;SDS011;3135;42.602;23.468;2022-10-16T03:22:59;4.07;;;3.37;;
6203;SDS011;3135;42.602;23.468;2022-10-16T03:25:24;5.23;;;3.30;;
6203;SDS011;3135;42.602;23.468;2022-10-16T03:27:50;5.27;;;3.17;;
6203;SDS011;3135;42.602;23.468;2022-10-16T03:30:15;4.77;;;3.37;;
6203;SDS011;3135;42.602;23.468;2022-10-16T03:32:43;5.20;;;3.25;;
6203;SDS011;3135;42.602;23.468;2022-10-16T03:35:09;6.07;;;3.38;;
6203;SDS011;3135;42.602;23.468;2022-10-16T03:37:35;5.38;;;2.80;;
6203;SDS011;3135;42.602;23.468;2022-10-16T03:40:01;8.25;;;3.80;;
6203;SDS011;3135;42.602;23.468;2022-10-16T03:42:27;5.13;;;2.90;;
6203;SDS011;3135;42.602;23.468;2022-10-16T03:44:52;8.47;;;3.77;;
6203;SDS011;3135;42.602;23.468;2022-10-16T03:47:18;7.63;;;3.20;;
6203;SDS011;3135;42.602;23.468;2022-10-16T03:49:46;8.38;;;3.83;;
6203;SDS011;3135;42.602;23.468;2022-10-16T03:52:12;6.95;;;3.60;;
6203;SDS011;3135;42.602;23.468;2022-10-16T03:54:38;6.75;;;3.55;;
6203;SDS011;3135;42.602;23.468;2022-10-16T03:57:03;5.20;;;3.40;;
6203;SDS011;3135;42.602;23.468;2022-10-16T03:59:29;5.22;;;3.80;;
6203;SDS011;3135;42.602;23.468;2022-10-16T04:01:54;5.45;;;3.60;;
6203;SDS011;3135;42.602;23.468;2022-10-16T04:04:19;7.07;;;3.67;;
6203;SDS011;3135;42.602;23.468;2022-10-16T04:06:45;4.80;;;3.67;;
6203;SDS011;3135;42.602;23.468;2022-10-16T04:09:10;5.97;;;3.50;;
6203;SDS011;3135;42.602;23.468;2022-10-16T04:11:36;7.30;;;3.70;;
6203;SDS011;3135;42.602;23.468;2022-10-16T04:14:01;5.17;;;3.60;;
6203;SDS011;3135;42.602;23.468;2022-10-16T04:16:26;7.87;;;4.20;;
6203;SDS011;3135;42.602;23.468;2022-10-16T04:18:52;5.83;;;3.80;;
6203;SDS011;3135;42.602;23.468;2022-10-16T04:21:17;4.90;;;3.53;;
6203;SDS011;3135;42.602;23.468;2022-10-16T04:23:43;7.07;;;4.13;;
6203;SDS011;3135;42.602;23.468;2022-10-16T04:26:08;5.00;;;3.93;;
6203;SDS011;3135;42.602;23.468;2022-10-16T04:28:35;7.63;;;3.88;;
6203;SDS011;3135;42.602;23.468;2022-10-16T04:31:03;8.20;;;3.85;;
6203;SDS011;3135;42.602;23.468;2022-10-16T04:33:29;7.83;;;3.80;;
6203;SDS011;3135;42.602;23.468;2022-10-16T04:35:58;5.40;;;3.67;;
6203;SDS011;3135;42.602;23.468;2022-10-16T04:38:24;5.43;;;3.78;;
6203;SDS011;3135;42.602;23.468;2022-10-16T04:40:50;7.70;;;3.77;;
6203;SDS011;3135;42.602;23.468;2022-10-16T04:43:16;6.70;;;4.00;;
6203;SDS011;3135;42.602;23.468;2022-10-16T04:45:41;5.93;;;3.30;;
6203;SDS011;3135;42.602;23.468;2022-10-16T04:48:06;5.73;;;3.80;;
6203;SDS011;3135;42.602;23.468;2022-10-16T04:50:32;7.70;;;3.50;;
6203;SDS011;3135;42.602;23.468;2022-10-16T04:52:57;7.93;;;4.10;;
6203;SDS011;3135;42.602;23.468;2022-10-16T04:55:23;4.72;;;3.47;;
6203;SDS011;3135;42.602;23.468;2022-10-16T04:57:48;5.20;;;3.75;;
6203;SDS011;3135;42.602;23.468;2022-10-16T05:00:14;5.75;;;3.80;;
6203;SDS011;3135;42.602;23.468;2022-10-16T05:02:40;6.40;;;3.58;;
6203;SDS011;3135;42.602;23.468;2022-10-16T05:05:05;5.40;;;4.00;;
6203;SDS011;3135;42.602;23.468;2022-10-16T05:07:31;5.78;;;3.90;;
6203;SDS011;3135;42.602;23.468;2022-10-16T05:09:57;7.83;;;3.87;;
6203;SDS011;3135;42.602;23.468;2022-10-16T05:12:22;5.63;;;3.87;;
6203;SDS011;3135;42.602;23.468;2022-10-16T05:14:48;5.40;;;3.83;;
6203;SDS011;3135;42.602;23.468;2022-10-16T05:17:13;5.60;;;4.00;;
6203;SDS011;3135;42.602;23.468;2022-10-16T05:19:39;7.20;;;3.83;;
6203;SDS011;3135;42.602;23.468;2022-10-16T05:22:04;7.75;;;3.78;;
6203;SDS011;3135;42.602;23.468;2022-10-16T05:24:30;5.93;;;3.83;;
6203;SDS011;3135;42.602;23.468;2022-10-16T05:26:55;6.65;;;3.38;;
6203;SDS011;3135;42.602;23.468;2022-10-16T05:29:21;7.00;;;4.00;;
6203;SDS011;3135;42.602;23.468;2022-10-16T05:31:49;6.20;;;4.37;;
6203;SDS011;3135;42.602;23.468;2022-10-16T05:34:15;5.97;;;3.88;;
6203;SDS011;3135;42.602;23.468;2022-10-16T05:36:40;6.77;;;4.00;;
6203;SDS011;3135;42.602;23.468;2022-10-16T05:39:06;7.47;;;4.23;;
6203;SDS011;3135;42.602;23.468;2022-10-16T05:41:31;9.30;;;4.37;;
6203;SDS011;3135;42.602;23.468;2022-10-16T05:43:57;9.83;;;4.90;;
6203;SDS011;3135;42.602;23.468;2022-10-16T05:46:22;9.00;;;4.73;;
6203;SDS011;3135;42.602;23.468;2022-10-16T05:48:48;14.13;;;6.10;;
6203;SDS011;3135;42.602;23.468;2022-10-16T05:51:14;12.97;;;6.53;;
6203;SDS011;3135;42.602;23.468;2022-10-16T05:53:40;17.65;;;7.65;;
6203;SDS011;3135;42.602;23.468;2022-10-16T05:56:06;19.90;;;8.10;;
6203;SDS011;3135;42.602;23.468;2022-10-16T05:58:35;15.27;;;6.53;;
6203;SDS011;3135;42.602;23.468;2022-10-16T06:01:05;15.02;;;7.07;;
6203;SDS011;3135;42.602;23.468;2022-10-16T06:03:33;14.37;;;6.77;;
6203;SDS011;3135;42.602;23.468;2022-10-16T06:05:59;12.37;;;6.20;;
6203;SDS011;3135;42.602;23.468;2022-10-16T06:08:24;14.43;;;6.40;;
6203;SDS011;3135;42.602;23.468;2022-10-16T06:11:00;12.93;;;6.63;;
6203;SDS011;3135;42.602;23.468;2022-10-16T06:13:29;13.88;;;6.95;;
6203;SDS011;3135;42.602;23.468;2022-10-16T06:15:56;13.40;;;7.00;;
6203;SDS011;3135;42.602;23.468;2022-10-16T06:18:23;14.27;;;7.10;;
6203;SDS011;3135;42.602;23.468;2022-10-16T06:20:48;12.38;;;6.22;;
6203;SDS011;3135;42.602;23.468;2022-10-16T06:23:14;10.07;;;5.63;;
6203;SDS011;3135;42.602;23.468;2022-10-16T06:25:39;11.65;;;5.80;;
6203;SDS011;3135;42.602;23.468;2022-10-16T06:28:04;11.35;;;5.60;;
6203;SDS011;3135;42.602;23.468;2022-10-16T06:30:30;10.40;;;5.50;;
6203;SDS011;3135;42.602;23.468;2022-10-16T06:32:55;12.60;;;6.00;;
6203;SDS011;3135;42.602;23.468;2022-10-16T06:35:21;13.10;;;6.13;;
6203;SDS011;3135;42.602;23.468;2022-10-16T06:37:46;12.13;;;6.38;;
6203;SDS011;3135;42.602;23.468;2022-10-16T06:40:12;11.57;;;6.40;;
6203;SDS011;3135;42.602;23.468;2022-10-16T06:42:39;16.70;;;6.40;;
6203;SDS011;3135;42.602;23.468;2022-10-16T06:45:05;13.15;;;6.60;;
6203;SDS011;3135;42.602;23.468;2022-10-16T06:47:31;14.93;;;6.65;;
6203;SDS011;3135;42.602;23.468;2022-10-16T06:49:56;13.63;;;6.30;;
6203;SDS011;3135;42.602;23.468;2022-10-16T06:52:21;12.93;;;6.23;;
6203;SDS011;3135;42.602;23.468;2022-10-16T06:54:47;11.93;;;6.50;;
6203;SDS011;3135;42.602;23.468;2022-10-16T06:57:12;13.70;;;6.43;;
6203;SDS011;3135;42.602;23.468;2022-10-16T06:59:38;12.77;;;6.33;;
6203;SDS011;3135;42.602;23.468;2022-10-16T07:02:03;12.13;;;6.20;;
6203;SDS011;3135;42.602;23.468;2022-10-16T07:04:28;13.30;;;7.03;;
6203;SDS011;3135;42.602;23.468;2022-10-16T07:06:54;18.13;;;6.93;;
6203;SDS011;3135;42.602;23.468;2022-10-16T07:09:19;15.13;;;7.30;;
6203;SDS011;3135;42.602;23.468;2022-10-16T07:11:45;15.90;;;7.23;;
6203;SDS011;3135;42.602;23.468;2022-10-16T07:14:17;13.67;;;7.00;;
6203;SDS011;3135;42.602;23.468;2022-10-16T07:16:44;13.27;;;6.78;;
6203;SDS011;3135;42.602;23.468;2022-10-16T07:19:10;14.98;;;7.68;;
6203;SDS011;3135;42.602;23.468;2022-10-16T07:21:37;14.70;;;7.95;;
6203;SDS011;3135;42.602;23.468;2022-10-16T07:24:04;19.58;;;7.82;;
6203;SDS011;3135;42.602;23.468;2022-10-16T07:26:32;17.90;;;7.88;;
6203;SDS011;3135;42.602;23.468;2022-10-16T07:28:59;17.42;;;8.68;;
6203;SDS011;3135;42.602;23.468;2022-10-16T07:31:25;16.95;;;8.65;;
6203;SDS011;3135;42.602;23.468;2022-10-16T07:33:51;16.90;;;8.30;;
6203;SDS011;3135;42.602;23.468;2022-10-16T07:36:18;20.63;;;9.05;;
6203;SDS011;3135;42.602;23.468;2022-10-16T07:38:44;16.70;;;8.10;;
6203;SDS011;3135;42.602;23.468;2022-10-16T07:41:11;17.08;;;8.23;;
6203;SDS011;3135;42.602;23.468;2022-10-16T07:43:38;16.98;;;7.57;;
6203;SDS011;3135;42.602;23.468;2022-10-16T07:46:04;14.30;;;7.50;;
6203;SDS011;3135;42.602;23.468;2022-10-16T07:48:31;16.80;;;7.70;;
6203;SDS011;3135;42.602;23.468;2022-10-16T07:51:01;11.90;;;6.27;;
6203;SDS011;3135;42.602;23.468;2022-10-16T07:53:29;10.00;;;5.75;;
6203;SDS011;3135;42.602;23.468;2022-10-16T07:55:59;12.77;;;6.00;;
6203;SDS011;3135;42.602;23.468;2022-10-16T07:58:26;15.07;;;6.43;;
6203;SDS011;3135;42.602;23.468;2022-10-16T08:00:53;15.15;;;5.90;;
6203;SDS011;3135;42.602;23.468;2022-10-16T08:03:18;12.73;;;6.37;;
6203;SDS011;3135;42.602;23.468;2022-10-16T08:05:44;11.60;;;5.00;;
6203;SDS011;3135;42.602;23.468;2022-10-16T08:08:13;12.03;;;5.40;;
6203;SDS011;3135;42.602;23.468;2022-10-16T08:10:39;8.07;;;5.13;;
6203;SDS011;3135;42.602;23.468;2022-10-16T08:13:05;8.33;;;4.73;;
6203;SDS011;3135;42.602;23.468;2022-10-16T08:15:30;7.00;;;4.53;;
6203;SDS011;3135;42.602;23.468;2022-10-16T08:17:59;9.70;;;4.90;;
6203;SDS011;3135;42.602;23.468;2022-10-16T08:20:27;10.10;;;4.80;;
6203;SDS011;3135;42.602;23.468;2022-10-16T08:22:54;6.20;;;4.40;;
6203;SDS011;3135;42.602;23.468;2022-10-16T08:25:20;9.40;;;4.90;;
6203;SDS011;3135;42.602;23.468;2022-10-16T08:27:46;6.95;;;4.00;;
6203;SDS011;3135;42.602;23.468;2022-10-16T08:30:12;6.10;;;3.37;;
6203;SDS011;3135;42.602;23.468;2022-10-16T08:32:38;6.55;;;3.90;;
6203;SDS011;3135;42.602;23.468;2022-10-16T08:35:04;7.07;;;4.03;;
6203;SDS011;3135;42.602;23.468;2022-10-16T08:37:30;11.55;;;4.25;;
6203;SDS011;3135;42.602;23.468;2022-10-16T08:39:56;4.80;;;3.13;;
6203;SDS011;3135;42.602;23.468;2022-10-16T08:42:25;5.68;;;3.15;;
6203;SDS011;3135;42.602;23.468;2022-10-16T08:45:15;4.95;;;3.20;;
6203;SDS011;3135;42.602;23.468;2022-10-16T08:48:04;6.63;;;3.95;;
6203;SDS011;3135;42.602;23.468;2022-10-16T08:50:39;6.35;;;3.30;;
6203;SDS011;3135;42.602;23.468;2022-10-16T08:53:07;4.00;;;2.97;;
6203;SDS011;3135;42.602;23.468;2022-10-16T08:55:44;7.47;;;3.50;;
6203;SDS011;3135;42.602;23.468;2022-10-16T09:00:46;6.82;;;3.33;;
6203;SDS011;3135;42.602;23.468;2022-10-16T09:08:37;5.77;;;3.30;;
6203;SDS011;3135;42.602;23.468;2022-10-16T09:13:52;4.57;;;3.50;;
6203;SDS011;3135;42.602;23.468;2022-10-16T09:16:46;5.57;;;3.50;;
6203;SDS011;3135;42.602;23.468;2022-10-16T09:21:53;6.38;;;3.90;;
6203;SDS011;3135;42.602;23.468;2022-10-16T09:24:21;12.17;;;3.60;;
6203;SDS011;3135;42.602;23.468;2022-10-16T09:26:50;7.80;;;3.60;;
6203;SDS011;3135;42.602;23.468;2022-10-16T09:29:17;4.43;;;3.08;;
6203;SDS011;3135;42.602;23.468;2022-10-16T09:31:48;4.60;;;3.10;;
6203;SDS011;3135;42.602;23.468;2022-10-16T09:34:33;5.20;;;3.35;;
6203;SDS011;3135;42.602;23.468;2022-10-16T09:37:03;5.43;;;3.40;;
6203;SDS011;3135;42.602;23.468;2022-10-16T09:39:30;5.32;;;3.65;;
6203;SDS011;3135;42.602;23.468;2022-10-16T09:41:56;4.93;;;3.20;;
6203;SDS011;3135;42.602;23.468;2022-10-16T09:44:26;6.43;;;3.87;;
6203;SDS011;3135;42.602;23.468;2022-10-16T09:47:01;6.47;;;4.07;;
6203;SDS011;3135;42.602;23.468;2022-10-16T09:49:30;5.43;;;4.22;;
6203;SDS011;3135;42.602;23.468;2022-10-16T09:52:12;6.55;;;4.40;;
6203;SDS011;3135;42.602;23.468;2022-10-16T09:54:52;6.78;;;4.20;;
6203;SDS011;3135;42.602;23.468;2022-10-16T09:57:19;8.23;;;4.63;;
6203;SDS011;3135;42.602;23.468;2022-10-16T09:59:49;5.70;;;4.30;;
6203;SDS011;3135;42.602;23.468;2022-10-16T10:02:29;5.13;;;3.90;;
6203;SDS011;3135;42.602;23.468;2022-10-16T10:04:59;6.70;;;4.00;;
6203;SDS011;3135;42.602;23.468;2022-10-16T10:07:28;7.80;;;3.88;;
6203;SDS011;3135;42.602;23.468;2022-10-16T10:10:01;7.00;;;4.15;;
6203;SDS011;3135;42.602;23.468;2022-10-16T10:12:30;7.60;;;4.37;;
6203;SDS011;3135;42.602;23.468;2022-10-16T10:15:07;9.00;;;5.27;;
6203;SDS011;3135;42.602;23.468;2022-10-16T10:17:45;9.65;;;4.80;;
6203;SDS011;3135;42.602;23.468;2022-10-16T10:20:26;6.70;;;4.35;;
6203;SDS011;3135;42.602;23.468;2022-10-16T10:22:54;6.03;;;3.88;;
6203;SDS011;3135;42.602;23.468;2022-10-16T10:25:26;7.97;;;4.28;;
6203;SDS011;3135;42.602;23.468;2022-10-16T10:36:25;5.93;;;3.53;;
6203;SDS011;3135;42.602;23.468;2022-10-16T10:38:57;3.47;;;2.97;;
6203;SDS011;3135;42.602;23.468;2022-10-16T10:41:34;5.93;;;2.97;;
6203;SDS011;3135;42.602;23.468;2022-10-16T10:47:10;3.42;;;2.92;;
6203;SDS011;3135;42.602;23.468;2022-10-16T11:00:00;3.10;;;2.50;;
6203;SDS011;3135;42.602;23.468;2022-10-16T11:02:41;4.15;;;2.55;;
6203;SDS011;3135;42.602;23.468;2022-10-16T11:05:16;3.10;;;2.30;;
6203;SDS011;3135;42.602;23.468;2022-10-16T11:07:57;2.28;;;2.10;;
6203;SDS011;3135;42.602;23.468;2022-10-16T11:10:27;5.25;;;2.00;;
6203;SDS011;3135;42.602;23.468;2022-10-16T11:12:59;3.58;;;2.25;;
6203;SDS011;3135;42.602;23.468;2022-10-16T11:15:42;2.30;;;2.10;;
6203;SDS011;3135;42.602;23.468;2022-10-16T11:18:13;2.72;;;2.10;;
6203;SDS011;3135;42.602;23.468;2022-10-16T11:20:54;2.30;;;2.03;;
6203;SDS011;3135;42.602;23.468;2022-10-16T11:25:56;1.70;;;1.60;;
6203;SDS011;3135;42.602;23.468;2022-10-16T11:28:27;2.90;;;1.80;;
6203;SDS011;3135;42.602;23.468;2022-10-16T11:33:54;2.35;;;1.60;;
6203;SDS011;3135;42.602;23.468;2022-10-16T11:36:44;2.25;;;1.75;;
6203;SDS011;3135;42.602;23.468;2022-10-16T11:41:47;2.75;;;2.00;;
6203;SDS011;3135;42.602;23.468;2022-10-16T11:49:43;2.75;;;2.30;;
6203;SDS011;3135;42.602;23.468;2022-10-16T11:52:17;2.20;;;1.80;;
6203;SDS011;3135;42.602;23.468;2022-10-16T11:54:52;2.07;;;1.70;;
6203;SDS011;3135;42.602;23.468;2022-10-16T11:57:26;2.20;;;1.92;;
6203;SDS011;3135;42.602;23.468;2022-10-16T12:08:13;1.92;;;1.20;;
6203;SDS011;3135;42.602;23.468;2022-10-16T12:10:42;2.33;;;2.10;;
6203;SDS011;3135;42.602;23.468;2022-10-16T12:16:25;2.58;;;1.35;;
6203;SDS011;3135;42.602;23.468;2022-10-16T12:18:50;1.70;;;1.40;;
6203;SDS011;3135;42.602;23.468;2022-10-16T12:21:47;2.38;;;1.63;;
6203;SDS011;3135;42.602;23.468;2022-10-16T12:24:30;2.72;;;1.52;;
6203;SDS011;3135;42.602;23.468;2022-10-16T12:26:56;4.22;;;1.85;;
6203;SDS011;3135;42.602;23.468;2022-10-16T12:29:30;2.47;;;1.63;;
6203;SDS011;3135;42.602;23.468;2022-10-16T12:32:05;1.73;;;1.58;;
6203;SDS011;3135;42.602;23.468;2022-10-16T12:34:51;3.20;;;2.10;;
6203;SDS011;3135;42.602;23.468;2022-10-16T12:37:21;1.97;;;1.77;;
6203;SDS011;3135;42.602;23.468;2022-10-16T12:39:50;3.10;;;1.60;;
6203;SDS011;3135;42.602;23.468;2022-10-16T12:44:52;4.65;;;2.10;;
6203;SDS011;3135;42.602;23.468;2022-10-16T12:47:47;2.65;;;2.30;;
6203;SDS011;3135;42.602;23.468;2022-10-16T12:52:59;3.50;;;2.28;;
6203;SDS011;3135;42.602;23.468;2022-10-16T12:55:26;2.08;;;1.80;;
6203;SDS011;3135;42.602;23.468;2022-10-16T12:58:00;3.72;;;1.80;;
6203;SDS011;3135;42.602;23.468;2022-10-16T13:00:50;2.08;;;1.60;;
6203;SDS011;3135;42.602;23.468;2022-10-16T13:06:17;2.17;;;1.92;;
6203;SDS011;3135;42.602;23.468;2022-10-16T13:11:48;2.92;;;1.95;;
6203;SDS011;3135;42.602;23.468;2022-10-16T13:19:55;2.30;;;1.55;;
6203;SDS011;3135;42.602;23.468;2022-10-16T13:28:00;2.80;;;2.13;;
6203;SDS011;3135;42.602;23.468;2022-10-16T13:30:27;1.80;;;1.60;;
6203;SDS011;3135;42.602;23.468;2022-10-16T13:32:59;2.15;;;1.58;;
6203;SDS011;3135;42.602;23.468;2022-10-16T13:35:28;1.73;;;1.50;;
6203;SDS011;3135;42.602;23.468;2022-10-16T13:40:37;3.33;;;1.88;;
6203;SDS011;3135;42.602;23.468;2022-10-16T13:43:23;3.00;;;2.00;;
6203;SDS011;3135;42.602;23.468;2022-10-16T13:46:01;2.75;;;1.90;;
6203;SDS011;3135;42.602;23.468;2022-10-16T13:48:29;1.50;;;1.38;;
6203;SDS011;3135;42.602;23.468;2022-10-16T13:51:04;2.10;;;1.52;;
6203;SDS011;3135;42.602;23.468;2022-10-16T13:53:31;3.80;;;1.83;;
6203;SDS011;3135;42.602;23.468;2022-10-16T13:55:58;2.65;;;1.30;;
6203;SDS011;3135;42.602;23.468;2022-10-16T13:58:25;6.65;;;1.85;;
6203;SDS011;3135;42.602;23.468;2022-10-16T14:01:04;7.10;;;2.50;;
6203;SDS011;3135;42.602;23.468;2022-10-16T14:03:39;1.70;;;1.40;;
6203;SDS011;3135;42.602;23.468;2022-10-16T14:06:06;3.65;;;1.90;;
6203;SDS011;3135;42.602;23.468;2022-10-16T14:08:40;3.33;;;2.08;;
6203;SDS011;3135;42.602;23.468;2022-10-16T14:11:08;5.95;;;3.10;;
6203;SDS011;3135;42.602;23.468;2022-10-16T14:13:38;4.32;;;2.65;;
6203;SDS011;3135;42.602;23.468;2022-10-16T14:16:09;4.10;;;2.90;;
6203;SDS011;3135;42.602;23.468;2022-10-16T14:18:41;3.70;;;2.20;;
6203;SDS011;3135;42.602;23.468;2022-10-16T14:21:14;4.93;;;2.70;;
6203;SDS011;3135;42.602;23.468;2022-10-16T14:23:41;6.70;;;3.92;;
6203;SDS011;3135;42.602;23.468;2022-10-16T14:28:33;7.03;;;3.10;;
6203;SDS011;3135;42.602;23.468;2022-10-16T14:30:59;12.88;;;4.35;;
6203;SDS011;3135;42.602;23.468;2022-10-16T14:36:13;11.52;;;4.57;;
6203;SDS011;3135;42.602;23.468;2022-10-16T14:38:40;15.80;;;5.13;;
6203;SDS011;3135;42.602;23.468;2022-10-16T14:41:08;8.57;;;3.60;;
6203;SDS011;3135;42.602;23.468;2022-10-16T14:43:35;49.53;;;15.18;;
6203;SDS011;3135;42.602;23.468;2022-10-16T14:46:03;17.35;;;5.75;;
6203;SDS011;3135;42.602;23.468;2022-10-16T14:48:35;6.38;;;3.10;;
6203;SDS011;3135;42.602;23.468;2022-10-16T14:51:07;6.43;;;3.72;;
6203;SDS011;3135;42.602;23.468;2022-10-16T14:53:38;7.60;;;3.63;;
6203;SDS011;3135;42.602;23.468;2022-10-16T14:56:07;7.93;;;3.05;;
6203;SDS011;3135;42.602;23.468;2022-10-16T14:58:44;6.80;;;3.20;;
6203;SDS011;3135;42.602;23.468;2022-10-16T15:01:10;21.67;;;8.40;;
6203;SDS011;3135;42.602;23.468;2022-10-16T15:03:36;35.00;;;13.18;;
6203;SDS011;3135;42.602;23.468;2022-10-16T15:06:02;16.63;;;6.22;;
6203;SDS011;3135;42.602;23.468;2022-10-16T15:08:28;5.80;;;3.38;;
6203;SDS011;3135;42.602;23.468;2022-10-16T15:10:54;5.10;;;2.60;;
6203;SDS011;3135;42.602;23.468;2022-10-16T15:13:19;5.10;;;3.20;;
6203;SDS011;3135;42.602;23.468;2022-10-16T15:15:45;4.95;;;2.67;;
6203;SDS011;3135;42.602;23.468;2022-10-16T15:18:12;7.72;;;3.08;;
6203;SDS011;3135;42.602;23.468;2022-10-16T15:20:40;5.37;;;2.80;;
6203;SDS011;3135;42.602;23.468;2022-10-16T15:23:16;5.25;;;2.90;;
6203;SDS011;3135;42.602;23.468;2022-10-16T15:25:44;3.72;;;2.40;;
6203;SDS011;3135;42.602;23.468;2022-10-16T15:28:12;4.90;;;2.40;;
6203;SDS011;3135;42.602;23.468;2022-10-16T15:30:38;2.90;;;2.30;;
6203;SDS011;3135;42.602;23.468;2022-10-16T15:33:04;3.42;;;2.15;;
6203;SDS011;3135;42.602;23.468;2022-10-16T15:35:35;2.65;;;2.00;;
6203;SDS011;3135;42.602;23.468;2022-10-16T15:38:01;3.83;;;2.10;;
6203;SDS011;3135;42.602;23.468;2022-10-16T15:40:26;3.37;;;2.17;;
6203;SDS011;3135;42.602;23.468;2022-10-16T15:42:52;4.40;;;1.90;;
6203;SDS011;3135;42.602;23.468;2022-10-16T15:45:17;5.13;;;2.20;;
6203;SDS011;3135;42.602;23.468;2022-10-16T15:47:44;2.80;;;2.00;;
6203;SDS011;3135;42.602;23.468;2022-10-16T15:50:10;2.00;;;1.70;;
6203;SDS011;3135;42.602;23.468;2022-10-16T15:52:37;5.35;;;1.67;;
6203;SDS011;3135;42.602;23.468;2022-10-16T15:55:04;5.95;;;1.95;;
6203;SDS011;3135;42.602;23.468;2022-10-16T15:57:31;2.47;;;2.00;;
6203;SDS011;3135;42.602;23.468;2022-10-16T15:59:57;2.70;;;1.80;;
6203;SDS011;3135;42.602;23.468;2022-10-16T16:02:22;4.53;;;2.00;;
6203;SDS011;3135;42.602;23.468;2022-10-16T16:04:47;2.37;;;1.63;;
6203;SDS011;3135;42.602;23.468;2022-10-16T16:07:13;2.00;;;1.77;;
6203;SDS011;3135;42.602;23.468;2022-10-16T16:09:39;2.57;;;2.00;;
6203;SDS011;3135;42.602;23.468;2022-10-16T16:12:04;2.97;;;1.90;;
6203;SDS011;3135;42.602;23.468;2022-10-16T16:14:30;1.87;;;1.67;;
6203;SDS011;3135;42.602;23.468;2022-10-16T16:16:56;2.60;;;1.80;;
6203;SDS011;3135;42.602;23.468;2022-10-16T16:19:22;2.27;;;1.43;;
6203;SDS011;3135;42.602;23.468;2022-10-16T16:21:48;1.83;;;1.67;;
6203;SDS011;3135;42.602;23.468;2022-10-16T16:24:14;2.83;;;1.80;;
6203;SDS011;3135;42.602;23.468;2022-10-16T16:26:39;2.73;;;1.67;;
6203;SDS011;3135;42.602;23.468;2022-10-16T16:29:08;1.70;;;1.60;;
6203;SDS011;3135;42.602;23.468;2022-10-16T16:31:37;1.70;;;1.60;;
6203;SDS011;3135;42.602;23.468;2022-10-16T16:34:03;5.27;;;1.70;;
6203;SDS011;3135;42.602;23.468;2022-10-16T16:36:28;2.30;;;1.70;;
6203;SDS011;3135;42.602;23.468;2022-10-16T16:38:54;4.60;;;1.80;;
6203;SDS011;3135;42.602;23.468;2022-10-16T16:41:21;2.77;;;1.80;;
6203;SDS011;3135;42.602;23.468;2022-10-16T16:43:48;2.40;;;1.65;;
6203;SDS011;3135;42.602;23.468;2022-10-16T16:46:16;2.93;;;1.80;;
6203;SDS011;3135;42.602;23.468;2022-10-16T16:48:42;3.30;;;1.75;;
6203;SDS011;3135;42.602;23.468;2022-10-16T16:51:15;3.95;;;1.85;;
6203;SDS011;3135;42.602;23.468;2022-10-16T16:53:43;2.33;;;1.50;;
6203;SDS011;3135;42.602;23.468;2022-10-16T16:56:10;3.15;;;1.70;;